Time;durP1;ratioP1;P1;durP2;ratioP2;P2;SDS_P1;SDS_P2;PMS_P1;PMS_P2;Temp;Humidity;BMP_temperature;BMP_pressure;BME280_temperature;BME280_humidity;BME280_pressure;Samples;Min_cycle;Max_cycle;Signal;HPM_P1;HPM_P2
2022/08/12 00:43:28;;;;;;;2.78;1.67;;;;;;;;;;7388740;19;20026;-71
2022/08/12 00:48:41;;;;;;;1.40;1.30;;;;;;;;;;7390492;19;20002;-71
2022/08/12 00:51:07;;;;;;;2.53;1.40;;;;;;;;;;7389947;19;20111;-71
2022/08/12 00:53:34;;;;;;;1.58;1.48;;;;;;;;;;7388450;19;20007;-71
2022/08/12 00:56:01;;;;;;;1.20;1.10;;;;;;;;;;7386234;19;20014;-71
2022/08/12 00:58:29;;;;;;;1.52;1.38;;;;;;;;;;7389674;19;20515;-71
2022/08/12 01:01:01;;;;;;;3.13;1.80;;;;;;;;;;7387737;19;19998;-71
2022/08/12 01:11:27;;;;;;;1.63;1.23;;;;;;;;;;7388468;19;20436;-70
2022/08/12 01:11:45;;;;;;;2.20;1.60;;;;;;;;;;7381519;19;20009;-70
2022/08/12 01:14:11;;;;;;;3.25;1.55;;;;;;;;;;7382424;19;20003;-71
2022/08/12 01:16:37;;;;;;;1.85;1.40;;;;;;;;;;7386974;19;20007;-70
2022/08/12 01:19:03;;;;;;;2.08;1.50;;;;;;;;;;7384440;19;20345;-71
2022/08/12 01:21:51;;;;;;;2.22;1.60;;;;;;;;;;7383458;19;20468;-71
2022/08/12 01:24:54;;;;;;;2.72;1.23;;;;;;;;;;7385623;19;19999;-71
2022/08/12 01:27:21;;;;;;;1.35;1.25;;;;;;;;;;7388719;19;20018;-70
2022/08/12 01:29:50;;;;;;;1.77;1.67;;;;;;;;;;7388501;19;20002;-71
2022/08/12 01:32:18;;;;;;;2.42;1.50;;;;;;;;;;7385753;19;20002;-71
2022/08/12 01:35:02;;;;;;;2.25;1.40;;;;;;;;;;7387461;19;20007;-71
2022/08/12 01:37:29;;;;;;;2.40;1.58;;;;;;;;;;7388958;19;20411;-72
2022/08/12 01:39:58;;;;;;;1.55;1.40;;;;;;;;;;7388199;19;19998;-71
2022/08/12 01:42:25;;;;;;;1.65;1.38;;;;;;;;;;7385767;19;20007;-71
2022/08/12 01:44:52;;;;;;;2.10;1.42;;;;;;;;;;7390256;19;19998;-70
2022/08/12 01:47:29;;;;;;;2.08;1.60;;;;;;;;;;7390095;19;20360;-71
2022/08/12 01:50:12;;;;;;;1.55;1.40;;;;;;;;;;7387928;19;20009;-71
2022/08/12 01:53:00;;;;;;;1.83;1.40;;;;;;;;;;7389447;19;20428;-71
2022/08/12 01:55:28;;;;;;;2.70;1.70;;;;;;;;;;7386213;19;20020;-71
2022/08/12 01:58:10;;;;;;;2.22;1.50;;;;;;;;;;7387901;19;20032;-71
2022/08/12 02:00:47;;;;;;;2.47;1.60;;;;;;;;;;7387583;19;20015;-70
2022/08/12 02:11:56;;;;;;;2.72;1.80;;;;;;;;;;7385543;19;20098;-71
2022/08/12 02:14:48;;;;;;;2.53;1.53;;;;;;;;;;7385136;19;20010;-71
2022/08/12 02:17:56;;;;;;;1.58;1.38;;;;;;;;;;7387479;19;20215;-71
2022/08/12 02:20:34;;;;;;;1.63;1.30;;;;;;;;;;7387166;19;20019;-71
2022/08/12 02:23:03;;;;;;;2.25;1.45;;;;;;;;;;7384537;19;20480;-71
2022/08/12 02:25:37;;;;;;;5.57;1.60;;;;;;;;;;7387287;19;20023;-70
2022/08/12 02:28:02;;;;;;;2.60;1.50;;;;;;;;;;7387057;19;20002;-70
2022/08/12 02:30:32;;;;;;;2.53;1.58;;;;;;;;;;7393164;19;20361;-70
2022/08/12 02:33:00;;;;;;;1.77;1.30;;;;;;;;;;7390622;19;20092;-70
2022/08/12 02:35:28;;;;;;;1.83;1.40;;;;;;;;;;7392218;19;20014;-71
2022/08/12 02:37:59;;;;;;;2.22;1.63;;;;;;;;;;7394697;19;20378;-70
2022/08/12 02:40:26;;;;;;;2.13;1.60;;;;;;;;;;7394930;19;20360;-71
2022/08/12 02:42:58;;;;;;;2.95;1.73;;;;;;;;;;7391386;19;20012;-71
2022/08/12 02:45:44;;;;;;;2.40;1.55;;;;;;;;;;7394639;19;19998;-71
2022/08/12 02:48:16;;;;;;;2.80;1.50;;;;;;;;;;7394087;19;20468;-72
2022/08/12 02:50:51;;;;;;;2.13;1.50;;;;;;;;;;7394388;19;20013;-71
2022/08/12 02:53:17;;;;;;;2.25;1.40;;;;;;;;;;7389034;19;20006;-71
2022/08/12 02:55:44;;;;;;;1.90;1.52;;;;;;;;;;7396051;19;20031;-71
2022/08/12 02:58:10;;;;;;;1.42;1.33;;;;;;;;;;7397507;19;20002;-71
2022/08/12 03:00:37;;;;;;;2.05;1.60;;;;;;;;;;7393553;19;20015;-71
2022/08/12 03:03:05;;;;;;;1.70;1.25;;;;;;;;;;7386089;19;19998;-71
2022/08/12 03:05:34;;;;;;;2.83;1.38;;;;;;;;;;7391401;19;19999;-71
2022/08/12 03:08:03;;;;;;;2.70;2.00;;;;;;;;;;7393352;19;19995;-71
2022/08/12 03:10:34;;;;;;;2.08;1.50;;;;;;;;;;7393559;19;20341;-71
2022/08/12 03:13:02;;;;;;;2.85;1.65;;;;;;;;;;7389770;19;20362;-71
2022/08/12 03:15:30;;;;;;;1.30;1.20;;;;;;;;;;7391029;19;20081;-71
2022/08/12 03:18:05;;;;;;;4.00;2.35;;;;;;;;;;7392986;19;20513;-70
2022/08/12 03:20:36;;;;;;;5.53;3.03;;;;;;;;;;7392623;19;20396;-70
2022/08/12 03:23:04;;;;;;;1.90;1.60;;;;;;;;;;7390150;19;20039;-70
2022/08/12 03:25:36;;;;;;;2.15;1.58;;;;;;;;;;7397254;19;20022;-71
2022/08/12 03:28:03;;;;;;;1.35;1.25;;;;;;;;;;7392498;19;19998;-71
2022/08/12 03:30:31;;;;;;;1.50;1.40;;;;;;;;;;7390549;19;20322;-71
2022/08/12 03:32:58;;;;;;;1.45;1.30;;;;;;;;;;7388786;19;20023;-70
2022/08/12 03:35:26;;;;;;;6.35;3.42;;;;;;;;;;7390611;19;20437;-70
2022/08/12 03:37:55;;;;;;;4.65;2.97;;;;;;;;;;7392227;19;19990;-70
2022/08/12 04:02:29;;;;;;;1.67;1.33;;;;;;;;;;7388830;19;20495;-71
2022/08/12 04:04:55;;;;;;;2.28;1.30;;;;;;;;;;7391869;19;20062;-69
2022/08/12 04:07:21;;;;;;;1.77;1.42;;;;;;;;;;7389825;19;20377;-69
2022/08/12 04:09:47;;;;;;;2.50;1.40;;;;;;;;;;7389967;19;20014;-69
2022/08/12 04:14:58;;;;;;;2.88;1.40;;;;;;;;;;7390923;19;20027;-71
2022/08/12 04:17:26;;;;;;;2.40;1.73;;;;;;;;;;7391514;19;20027;-70
2022/08/12 04:19:53;;;;;;;2.22;1.45;;;;;;;;;;7391507;19;20019;-70
2022/08/12 04:22:21;;;;;;;1.77;1.50;;;;;;;;;;7388847;19;20006;-70
2022/08/12 04:24:46;;;;;;;2.00;1.42;;;;;;;;;;7391351;19;20075;-70
2022/08/12 04:27:12;;;;;;;2.70;1.65;;;;;;;;;;7391055;19;19994;-71
2022/08/12 04:29:38;;;;;;;2.05;1.48;;;;;;;;;;7389472;19;20472;-70
2022/08/12 04:32:05;;;;;;;1.95;1.42;;;;;;;;;;7392443;19;20019;-70
2022/08/12 04:34:31;;;;;;;2.22;1.40;;;;;;;;;;7390730;19;20003;-70
2022/08/12 04:36:57;;;;;;;1.92;1.42;;;;;;;;;;7393765;19;20002;-70
2022/08/12 04:39:26;;;;;;;2.53;1.60;;;;;;;;;;7392340;19;20026;-71
2022/08/12 04:41:52;;;;;;;1.48;1.35;;;;;;;;;;7388339;19;20006;-69
2022/08/12 04:44:17;;;;;;;1.50;1.30;;;;;;;;;;7393859;19;20005;-70
2022/08/12 04:46:45;;;;;;;1.60;1.35;;;;;;;;;;7393229;19;20089;-70
2022/08/12 04:49:11;;;;;;;2.55;1.58;;;;;;;;;;7394122;19;20002;-70
2022/08/12 04:51:36;;;;;;;2.15;1.60;;;;;;;;;;7391723;19;20024;-69
2022/08/12 04:54:03;;;;;;;2.88;1.50;;;;;;;;;;7391981;19;19991;-68
2022/08/12 04:56:29;;;;;;;1.25;1.10;;;;;;;;;;7393140;19;20002;-73
2022/08/12 04:58:56;;;;;;;2.42;1.50;;;;;;;;;;7387810;19;20002;-72
2022/08/12 05:01:26;;;;;;;1.67;1.20;;;;;;;;;;7390004;19;20018;-73
2022/08/12 05:03:54;;;;;;;1.83;1.50;;;;;;;;;;7390661;19;20028;-72
2022/08/12 05:06:19;;;;;;;1.63;1.52;;;;;;;;;;7393035;19;19995;-72
2022/08/12 05:08:44;;;;;;;1.90;1.25;;;;;;;;;;7390375;19;20009;-72
2022/08/12 05:11:10;;;;;;;1.58;1.20;;;;;;;;;;7391519;19;19995;-72
2022/08/12 05:13:39;;;;;;;1.90;1.40;;;;;;;;;;7391197;19;20007;-72
2022/08/12 05:16:05;;;;;;;1.50;1.40;;;;;;;;;;7391147;19;20066;-72
2022/08/12 05:18:37;;;;;;;1.70;1.25;;;;;;;;;;7393072;19;20023;-73
2022/08/12 05:21:04;;;;;;;1.65;1.35;;;;;;;;;;7390450;19;19995;-73
2022/08/12 05:23:32;;;;;;;3.30;2.03;;;;;;;;;;7389793;19;20012;-73
2022/08/12 05:25:59;;;;;;;3.50;1.50;;;;;;;;;;7390445;19;20010;-73
2022/08/12 05:28:26;;;;;;;1.65;1.45;;;;;;;;;;7389080;19;19998;-73
2022/08/12 05:30:51;;;;;;;1.58;1.45;;;;;;;;;;7389980;19;20132;-74
2022/08/12 05:33:19;;;;;;;1.85;1.33;;;;;;;;;;7388865;19;20002;-73
2022/08/12 05:35:48;;;;;;;2.67;1.63;;;;;;;;;;7388238;19;20019;-73
2022/08/12 05:41:17;;;;;;;2.85;1.48;;;;;;;;;;7389597;19;20019;-72
2022/08/12 05:44:03;;;;;;;2.20;1.25;;;;;;;;;;7390622;19;20018;-74
2022/08/12 05:46:29;;;;;;;1.58;1.42;;;;;;;;;;7389172;19;20589;-72
2022/08/12 05:48:57;;;;;;;1.48;1.35;;;;;;;;;;7389865;19;20051;-71
2022/08/12 05:51:24;;;;;;;2.05;1.33;;;;;;;;;;7390532;19;20007;-71
2022/08/12 05:53:54;;;;;;;1.88;1.45;;;;;;;;;;7390709;19;20015;-70
2022/08/12 05:56:24;;;;;;;2.43;1.70;;;;;;;;;;7365316;19;20066;-71
2022/08/12 05:58:50;;;;;;;;;;;;;;;;;;7389738;19;20022;-72
2022/08/12 06:01:16;;;;;;;1.38;1.27;;;;;;;;;;7388351;19;20401;-72
2022/08/12 06:03:42;;;;;;;2.92;1.30;;;;;;;;;;7393551;19;20010;-72
2022/08/12 06:06:09;;;;;;;3.33;1.70;;;;;;;;;;7399136;19;19999;-72
2022/08/12 06:08:35;;;;;;;1.52;1.33;;;;;;;;;;7396357;19;20013;-72
2022/08/12 06:11:03;;;;;;;1.30;1.20;;;;;;;;;;7397231;19;20029;-71
2022/08/12 06:13:29;;;;;;;1.88;1.55;;;;;;;;;;7395073;19;20413;-71
2022/08/12 06:15:55;;;;;;;2.08;1.50;;;;;;;;;;7394344;19;19999;-71
2022/08/12 06:18:21;;;;;;;1.58;1.20;;;;;;;;;;7395541;19;20001;-71
2022/08/12 06:20:49;;;;;;;2.47;1.65;;;;;;;;;;7396290;19;20024;-71
2022/08/12 06:23:15;;;;;;;2.15;1.38;;;;;;;;;;7390993;19;20003;-71
2022/08/12 06:25:42;;;;;;;2.50;1.63;;;;;;;;;;7397888;19;20023;-72
2022/08/12 06:28:16;;;;;;;3.08;1.75;;;;;;;;;;7399197;19;20003;-72
2022/08/12 06:30:44;;;;;;;1.50;1.30;;;;;;;;;;7385356;19;20006;-76
2022/08/12 06:33:10;;;;;;;2.08;1.63;;;;;;;;;;7390968;19;20009;-76
2022/08/12 06:35:35;;;;;;;2.08;1.52;;;;;;;;;;7391243;19;20010;-74
2022/08/12 06:38:02;;;;;;;3.80;1.55;;;;;;;;;;7390507;19;20006;-73
2022/08/12 06:43:12;;;;;;;3.17;1.73;;;;;;;;;;7389750;19;20031;-70
2022/08/12 06:45:44;;;;;;;1.52;1.25;;;;;;;;;;7392072;19;20006;-71
2022/08/12 06:48:10;;;;;;;3.95;1.48;;;;;;;;;;7395754;19;20045;-72
2022/08/12 06:50:36;;;;;;;1.40;1.27;;;;;;;;;;7394744;19;19999;-71
2022/08/12 06:53:04;;;;;;;1.40;1.30;;;;;;;;;;7387849;19;20034;-73
2022/08/12 06:55:30;;;;;;;1.40;1.30;;;;;;;;;;7390137;19;20502;-70
2022/08/12 06:58:00;;;;;;;1.88;1.42;;;;;;;;;;7391159;19;20006;-70
2022/08/12 07:00:29;;;;;;;1.95;1.25;;;;;;;;;;7393395;19;20070;-69
2022/08/12 07:02:56;;;;;;;2.33;1.40;;;;;;;;;;7386126;19;20067;-69
2022/08/12 07:05:25;;;;;;;1.95;1.50;;;;;;;;;;7393048;19;20017;-68
2022/08/12 07:08:00;;;;;;;2.03;1.52;;;;;;;;;;7391409;19;20512;-68
2022/08/12 07:10:26;;;;;;;1.83;1.40;;;;;;;;;;7389247;19;20003;-71
2022/08/12 07:12:55;;;;;;;1.30;1.17;;;;;;;;;;7390467;19;20027;-69
2022/08/12 07:15:25;;;;;;;1.92;1.33;;;;;;;;;;7384747;19;20073;-70
2022/08/12 07:18:37;;;;;;;2.42;1.52;;;;;;;;;;7395307;19;20027;-72
2022/08/12 07:20:46;;;;;;;1.83;1.42;;;;;;;;;;7392767;19;20366;-74
2022/08/12 07:23:13;;;;;;;1.70;1.30;;;;;;;;;;7391118;19;20468;-77
2022/08/12 07:25:39;;;;;;;1.90;1.50;;;;;;;;;;7396308;19;19998;-76
2022/08/12 07:28:11;;;;;;;1.70;1.38;;;;;;;;;;7395189;19;20535;-76
2022/08/12 07:30:39;;;;;;;1.80;1.40;;;;;;;;;;7393771;19;19998;-76
2022/08/12 07:33:08;;;;;;;1.42;1.33;;;;;;;;;;7391804;19;20008;-76
2022/08/12 07:35:44;;;;;;;3.28;1.52;;;;;;;;;;7393506;19;20461;-75
2022/08/12 07:38:24;;;;;;;1.40;1.30;;;;;;;;;;7395869;19;20001;-72
2022/08/12 07:41:02;;;;;;;1.60;1.50;;;;;;;;;;7391871;19;20422;-72
2022/08/12 07:43:29;;;;;;;2.78;1.60;;;;;;;;;;7390416;19;20475;-72
2022/08/12 07:45:55;;;;;;;1.60;1.30;;;;;;;;;;7390584;19;20491;-72
2022/08/12 07:48:22;;;;;;;1.40;1.30;;;;;;;;;;7386873;19;20009;-73
2022/08/12 07:50:47;;;;;;;1.52;1.27;;;;;;;;;;7388489;19;20464;-71
2022/08/12 07:53:13;;;;;;;3.08;1.50;;;;;;;;;;7385225;19;19991;-72
2022/08/12 07:55:39;;;;;;;2.25;1.30;;;;;;;;;;7388149;19;20428;-72
2022/08/12 07:58:04;;;;;;;2.13;1.48;;;;;;;;;;7389992;19;20092;-73
2022/08/12 08:00:33;;;;;;;2.05;1.50;;;;;;;;;;7389304;19;20332;-74
2022/08/12 08:02:58;;;;;;;1.55;1.23;;;;;;;;;;7389399;19;20014;-73
2022/08/12 08:05:27;;;;;;;3.50;1.40;;;;;;;;;;7393798;19;20002;-73
2022/08/12 08:07:54;;;;;;;1.38;1.27;;;;;;;;;;7394740;19;20062;-73
2022/08/12 08:10:20;;;;;;;1.67;1.50;;;;;;;;;;7390240;19;20424;-72
2022/08/12 08:12:57;;;;;;;1.80;1.20;;;;;;;;;;7389305;19;19998;-71
2022/08/12 08:15:29;;;;;;;1.60;1.50;;;;;;;;;;7392512;19;20010;-72
2022/08/12 08:18:01;;;;;;;1.63;1.33;;;;;;;;;;7394727;19;20003;-72
2022/08/12 08:20:34;;;;;;;1.67;1.40;;;;;;;;;;7390582;19;20007;-72
2022/08/12 08:23:06;;;;;;;2.13;1.45;;;;;;;;;;7390018;19;20358;-72
2022/08/12 08:25:34;;;;;;;1.42;1.30;;;;;;;;;;7394446;19;20003;-72
2022/08/12 08:28:03;;;;;;;2.15;1.45;;;;;;;;;;7394870;19;20002;-72
2022/08/12 08:30:30;;;;;;;1.45;1.08;;;;;;;;;;7393122;19;20471;-72
2022/08/12 08:32:55;;;;;;;1.80;1.33;;;;;;;;;;7389497;19;20002;-72
2022/08/12 08:35:22;;;;;;;2.70;1.55;;;;;;;;;;7391099;19;20035;-72
2022/08/12 08:37:48;;;;;;;1.13;1.08;;;;;;;;;;7394041;19;20019;-71
2022/08/12 08:42:57;;;;;;;1.50;1.40;;;;;;;;;;7391259;19;20039;-72
2022/08/12 08:45:22;;;;;;;1.42;1.15;;;;;;;;;;7393031;19;20457;-73
2022/08/12 08:47:50;;;;;;;1.25;1.15;;;;;;;;;;7394111;19;20014;-73
2022/08/12 08:50:16;;;;;;;2.35;1.30;;;;;;;;;;7389091;19;20002;-71
2022/08/12 08:52:42;;;;;;;1.63;1.40;;;;;;;;;;7388067;19;19995;-72
2022/08/12 08:55:09;;;;;;;1.92;1.30;;;;;;;;;;7391464;19;19999;-73
2022/08/12 08:57:35;;;;;;;1.70;1.40;;;;;;;;;;7393675;19;20023;-72
2022/08/12 09:00:01;;;;;;;2.15;1.40;;;;;;;;;;7393795;19;20469;-73
2022/08/12 09:02:27;;;;;;;1.27;1.17;;;;;;;;;;7387047;19;20405;-73
2022/08/12 09:04:52;;;;;;;1.20;1.10;;;;;;;;;;7393697;19;20003;-73
2022/08/12 09:07:17;;;;;;;2.40;1.33;;;;;;;;;;7390063;19;20463;-73
2022/08/12 09:09:43;;;;;;;2.17;1.25;;;;;;;;;;7392553;19;20005;-75
2022/08/12 09:14:53;;;;;;;1.00;1.00;;;;;;;;;;7391831;19;20009;-72
2022/08/12 09:17:21;;;;;;;1.20;1.10;;;;;;;;;;7393141;19;20066;-71
2022/08/12 09:19:46;;;;;;;2.03;1.40;;;;;;;;;;7389514;19;20023;-72
2022/08/12 09:22:12;;;;;;;1.90;1.08;;;;;;;;;;7391725;19;20002;-71
2022/08/12 09:24:38;;;;;;;1.92;1.38;;;;;;;;;;7388081;19;20354;-73
2022/08/12 09:27:05;;;;;;;1.60;1.40;;;;;;;;;;7390455;19;20002;-73
2022/08/12 09:29:32;;;;;;;1.45;1.23;;;;;;;;;;7391325;19;20464;-73
2022/08/12 09:31:58;;;;;;;1.90;1.30;;;;;;;;;;7389541;19;20006;-72
2022/08/12 09:34:26;;;;;;;2.22;1.30;;;;;;;;;;7386345;19;20002;-72
2022/08/12 09:36:52;;;;;;;1.02;1.00;;;;;;;;;;7389868;19;20002;-73
2022/08/12 09:39:17;;;;;;;1.80;1.30;;;;;;;;;;7388948;19;20007;-71
2022/08/12 09:41:44;;;;;;;4.50;1.58;;;;;;;;;;7391553;19;20036;-73
2022/08/12 09:46:56;;;;;;;1.27;1.17;;;;;;;;;;7392005;19;20022;-75
2022/08/12 09:49:23;;;;;;;1.17;1.08;;;;;;;;;;7389074;19;20662;-76
2022/08/12 09:51:48;;;;;;;1.40;1.30;;;;;;;;;;7390768;19;19995;-75
2022/08/12 09:54:16;;;;;;;1.50;1.05;;;;;;;;;;7391021;19;20039;-76
2022/08/12 09:56:43;;;;;;;1.30;1.20;;;;;;;;;;7390769;19;20031;-76
2022/08/12 09:59:09;;;;;;;1.83;1.20;;;;;;;;;;7389842;19;20002;-74
2022/08/12 10:01:38;;;;;;;2.05;1.38;;;;;;;;;;7390826;19;20002;-76
2022/08/12 10:04:09;;;;;;;1.42;1.20;;;;;;;;;;7389310;19;20006;-74
2022/08/12 10:06:37;;;;;;;1.20;1.10;;;;;;;;;;7387996;19;20013;-77
2022/08/12 10:09:07;;;;;;;1.50;1.25;;;;;;;;;;7389757;19;20006;-74
2022/08/12 10:14:16;;;;;;;1.05;0.95;;;;;;;;;;7391270;19;19922;-74
2022/08/12 10:16:45;;;;;;;1.27;1.15;;;;;;;;;;7388571;19;20349;-72
2022/08/12 10:19:11;;;;;;;1.10;1.10;;;;;;;;;;7389951;19;20010;-74
2022/08/12 10:21:40;;;;;;;4.50;1.40;;;;;;;;;;7390397;19;20003;-73
2022/08/12 10:24:10;;;;;;;1.60;1.38;;;;;;;;;;7389803;19;20003;-76
2022/08/12 10:32:08;;;;;;;2.05;1.23;;;;;;;;;;7390860;19;20074;-70
2022/08/12 10:34:33;;;;;;;0.98;0.93;;;;;;;;;;7386607;19;20418;-70
2022/08/12 10:37:01;;;;;;;1.85;1.42;;;;;;;;;;7389401;19;19999;-70
2022/08/12 10:39:34;;;;;;;1.45;1.23;;;;;;;;;;7390796;19;20007;-71
2022/08/12 10:45:02;;;;;;;1.40;1.08;;;;;;;;;;7389475;19;20024;-71
2022/08/12 10:47:29;;;;;;;1.58;1.13;;;;;;;;;;7390325;19;20014;-72
2022/08/12 10:49:55;;;;;;;1.77;1.20;;;;;;;;;;7389600;19;20066;-73
2022/08/12 10:52:23;;;;;;;1.30;1.20;;;;;;;;;;7395872;19;20729;-73
2022/08/12 10:54:49;;;;;;;1.27;1.17;;;;;;;;;;7392816;19;20472;-73
2022/08/12 10:57:15;;;;;;;1.80;1.35;;;;;;;;;;7396055;19;19999;-73
2022/08/12 10:59:41;;;;;;;2.30;1.10;;;;;;;;;;7397568;19;19995;-74
2022/08/12 11:02:12;;;;;;;1.33;1.20;;;;;;;;;;7392784;19;19999;-73
2022/08/12 11:04:39;;;;;;;1.38;1.20;;;;;;;;;;7392560;19;20015;-73
2022/08/12 11:07:05;;;;;;;2.28;1.23;;;;;;;;;;7389686;19;20078;-73
2022/08/12 11:09:31;;;;;;;1.30;1.20;;;;;;;;;;7393074;19;20469;-72
2022/08/12 11:11:59;;;;;;;1.73;1.40;;;;;;;;;;7390550;19;20027;-74
2022/08/12 11:14:30;;;;;;;1.48;1.30;;;;;;;;;;7390750;19;20563;-73
2022/08/12 11:17:13;;;;;;;1.73;1.30;;;;;;;;;;7391958;19;20483;-73
2022/08/12 11:19:40;;;;;;;3.03;1.58;;;;;;;;;;7388627;19;20006;-72
2022/08/12 11:22:06;;;;;;;1.45;1.13;;;;;;;;;;7393834;19;20007;-72
2022/08/12 11:24:32;;;;;;;1.70;1.10;;;;;;;;;;7392270;19;20003;-72
2022/08/12 11:26:59;;;;;;;1.02;0.95;;;;;;;;;;7394710;19;20006;-72
2022/08/12 11:29:27;;;;;;;1.30;1.20;;;;;;;;;;7391929;19;20002;-72
2022/08/12 11:31:53;;;;;;;1.42;1.20;;;;;;;;;;7394156;19;20044;-74
2022/08/12 11:34:19;;;;;;;2.80;1.30;;;;;;;;;;7392777;19;20603;-73
2022/08/12 11:36:59;;;;;;;1.52;1.13;;;;;;;;;;7396197;19;20410;-73
2022/08/12 11:39:25;;;;;;;1.40;1.20;;;;;;;;;;7395053;19;20010;-73
2022/08/12 11:41:51;;;;;;;1.27;1.17;;;;;;;;;;7394847;19;20465;-73
2022/08/12 11:44:17;;;;;;;1.30;1.20;;;;;;;;;;7394028;19;20072;-73
2022/08/12 11:46:43;;;;;;;1.10;1.00;;;;;;;;;;7391609;19;20006;-73
2022/08/12 11:49:09;;;;;;;1.05;0.77;;;;;;;;;;7394326;19;20074;-72
2022/08/12 11:51:36;;;;;;;2.40;1.25;;;;;;;;;;7394527;19;20005;-72
2022/08/12 11:54:02;;;;;;;1.25;1.13;;;;;;;;;;7394427;19;20023;-73
2022/08/12 11:56:28;;;;;;;1.45;1.00;;;;;;;;;;7392318;19;19994;-72
2022/08/12 11:58:54;;;;;;;3.05;1.20;;;;;;;;;;7394118;19;20188;-72
2022/08/12 12:01:19;;;;;;;1.63;1.33;;;;;;;;;;7392978;19;20006;-73
2022/08/12 12:03:45;;;;;;;2.00;1.30;;;;;;;;;;7393537;19;20496;-73
2022/08/12 12:06:11;;;;;;;1.60;1.25;;;;;;;;;;7394602;19;20106;-73
2022/08/12 12:08:36;;;;;;;1.80;1.20;;;;;;;;;;7394558;19;20002;-73
2022/08/12 12:11:02;;;;;;;1.25;1.15;;;;;;;;;;7392899;19;20445;-73
2022/08/12 12:13:27;;;;;;;1.25;1.15;;;;;;;;;;7392220;19;20073;-73
2022/08/12 12:15:53;;;;;;;1.00;1.00;;;;;;;;;;7392201;19;19990;-73
2022/08/12 12:18:24;;;;;;;1.00;1.00;;;;;;;;;;7390788;19;19994;-74
2022/08/12 12:20:51;;;;;;;2.00;1.13;;;;;;;;;;7391872;19;20031;-74
2022/08/12 12:23:16;;;;;;;1.20;1.10;;;;;;;;;;7388815;19;20014;-72
2022/08/12 12:25:42;;;;;;;1.00;0.90;;;;;;;;;;7394179;19;20011;-73
2022/08/12 12:28:07;;;;;;;1.20;1.10;;;;;;;;;;7390842;19;20002;-72
2022/08/12 12:30:34;;;;;;;1.30;1.10;;;;;;;;;;7393442;19;19994;-72
2022/08/12 12:32:59;;;;;;;1.10;1.00;;;;;;;;;;7385989;19;20005;-71
2022/08/12 12:35:24;;;;;;;0.93;0.93;;;;;;;;;;7389333;19;19998;-73
2022/08/12 12:37:55;;;;;;;0.80;0.80;;;;;;;;;;7388932;19;20057;-72
2022/08/12 12:40:21;;;;;;;1.15;1.10;;;;;;;;;;7390872;19;20710;-72
2022/08/12 12:42:47;;;;;;;1.10;1.00;;;;;;;;;;7387937;19;20003;-70
2022/08/12 12:45:13;;;;;;;1.33;1.23;;;;;;;;;;7390702;19;20006;-69
2022/08/12 12:48:00;;;;;;;1.75;1.38;;;;;;;;;;7390351;19;20002;-70
